Terminal Aerodrome Forecast
Issued by NWS Cleveland, OH

Home | Current Version | Previous Version | Graphics & Text | Print | Product List | Glossary On
Versions: 1 2 3 4 5 6 7 8 9 10 11 12 13 14 15
167
FTUS41 KCLE 191730
TAFMFD
TAF
KMFD 191730Z 1918/2018 33007KT P6SM SCT035
     FM200700 VRB03KT 5SM BR BKN150
     FM201000 19003KT 1SM BR SCT045 BKN150
     FM201500 22008KT P6SM BKN045=

USA.gov is the U.S. government's official web portal to all federal, state and local government web resources and services.